Time;durP1;ratioP1;P1;durP2;ratioP2;P2;SDS_P1;SDS_P2;PMS_P1;PMS_P2;Temp;Humidity;BMP_temperature;BMP_pressure;BME280_temperature;BME280_humidity;BME280_pressure;Samples;Min_cycle;Max_cycle;Signal;HPM_P1;HPM_P2
2022/12/25 00:00:06;;;;;;;0.00;0.00;;;;;;;;;;1723794;28;20656;-74
2022/12/25 00:01:03;;;;;;;0.00;0.00;;;;;;;;;;1724350;28;20204;-73
2022/12/25 00:01:55;;;;;;;0.00;0.00;;;;;;;;;;1724533;28;20275;-74
2022/12/25 00:02:46;;;;;;;0.00;0.00;;;;;;;;;;1725119;28;20517;-73
2022/12/25 00:03:38;;;;;;;0.00;0.00;;;;;;;;;;1723884;28;20208;-74
2022/12/25 00:04:29;;;;;;;0.00;0.00;;;;;;;;;;1720806;28;20212;-74
2022/12/25 00:05:21;;;;;;;0.00;0.00;;;;;;;;;;1723005;28;20247;-74
2022/12/25 00:06:12;;;;;;;0.00;0.00;;;;;;;;;;1724686;28;20247;-73
2022/12/25 00:07:04;;;;;;;0.00;0.00;;;;;;;;;;1722650;28;20247;-73
2022/12/25 00:07:55;;;;;;;0.00;0.00;;;;;;;;;;1724985;28;20677;-73
2022/12/25 00:08:47;;;;;;;0.00;0.00;;;;;;;;;;1722595;28;20204;-73
2022/12/25 00:09:38;;;;;;;0.00;0.00;;;;;;;;;;1722089;28;20208;-74
2022/12/25 00:10:30;;;;;;;0.00;0.00;;;;;;;;;;1722654;28;20252;-74
2022/12/25 00:11:21;;;;;;;0.00;0.00;;;;;;;;;;1725064;28;20216;-74
2022/12/25 00:12:13;;;;;;;0.00;0.00;;;;;;;;;;1720120;28;20235;-74
2022/12/25 00:13:06;;;;;;;0.00;0.00;;;;;;;;;;1722573;28;20347;-74
2022/12/25 00:13:58;;;;;;;0.00;0.00;;;;;;;;;;1722137;28;20265;-74
2022/12/25 00:14:49;;;;;;;0.00;0.00;;;;;;;;;;1723486;28;20775;-74
2022/12/25 00:15:41;;;;;;;0.00;0.00;;;;;;;;;;1722590;28;20204;-74
2022/12/25 00:16:32;;;;;;;0.00;0.00;;;;;;;;;;1724833;28;20241;-74
2022/12/25 00:17:24;;;;;;;0.00;0.00;;;;;;;;;;1718565;28;20243;-74
2022/12/25 00:18:15;;;;;;;0.00;0.00;;;;;;;;;;1724063;28;20589;-74
2022/12/25 00:19:07;;;;;;;0.00;0.00;;;;;;;;;;1722434;28;20517;-74
2022/12/25 00:19:58;;;;;;;0.00;0.00;;;;;;;;;;1724544;28;20208;-74
2022/12/25 00:20:59;;;;;;;0.00;0.00;;;;;;;;;;1723701;28;20618;-74
2022/12/25 00:21:50;;;;;;;0.00;0.00;;;;;;;;;;1720505;28;20194;-75
2022/12/25 00:22:42;;;;;;;0.00;0.00;;;;;;;;;;1719812;28;20686;-74
2022/12/25 00:23:33;;;;;;;0.00;0.00;;;;;;;;;;1722227;28;20208;-74
2022/12/25 00:24:25;;;;;;;0.00;0.00;;;;;;;;;;1722364;28;20209;-74
2022/12/25 00:25:17;;;;;;;0.00;0.00;;;;;;;;;;1722477;28;20244;-74
2022/12/25 00:26:11;;;;;;;0.00;0.00;;;;;;;;;;1724782;28;20717;-73
2022/12/25 00:27:02;;;;;;;0.00;0.00;;;;;;;;;;1721172;28;20310;-73
2022/12/25 00:27:54;;;;;;;0.00;0.00;;;;;;;;;;1721338;28;20204;-73
2022/12/25 00:28:46;;;;;;;0.00;0.00;;;;;;;;;;1720301;28;20219;-73
2022/12/25 00:29:38;;;;;;;0.00;0.00;;;;;;;;;;1721732;28;20354;-73
2022/12/25 00:30:29;;;;;;;0.00;0.00;;;;;;;;;;1724249;28;20274;-73
2022/12/25 00:31:22;;;;;;;0.00;0.00;;;;;;;;;;1726027;28;20207;-74
2022/12/25 00:32:13;;;;;;;0.00;0.00;;;;;;;;;;1721132;28;20265;-74
2022/12/25 00:33:05;;;;;;;0.00;0.00;;;;;;;;;;1723942;28;20208;-74
2022/12/25 00:33:56;;;;;;;0.00;0.00;;;;;;;;;;1723089;28;20573;-74
2022/12/25 00:34:48;;;;;;;0.00;0.00;;;;;;;;;;1724813;28;20192;-74
2022/12/25 00:35:39;;;;;;;0.00;0.00;;;;;;;;;;1723493;28;20204;-74
2022/12/25 00:36:31;;;;;;;0.00;0.00;;;;;;;;;;1726250;28;20216;-73
2022/12/25 00:37:22;;;;;;;0.00;0.00;;;;;;;;;;1719801;28;20209;-73
2022/12/25 00:38:13;;;;;;;0.00;0.00;;;;;;;;;;1725114;28;20693;-73
2022/12/25 00:39:06;;;;;;;0.00;0.00;;;;;;;;;;1722915;28;20639;-73
2022/12/25 00:39:57;;;;;;;0.00;0.00;;;;;;;;;;1719927;28;20255;-73
2022/12/25 00:40:49;;;;;;;0.00;0.00;;;;;;;;;;1724722;28;20215;-73
2022/12/25 00:43:05;;;;;;;0.00;0.00;;;;;;;;;;1698372;29;20234;-73
2022/12/25 00:43:57;;;;;;;0.00;0.00;;;;;;;;;;1697893;29;20238;-73
2022/12/25 00:44:50;;;;;;;0.00;0.00;;;;;;;;;;1698951;29;20213;-73
2022/12/25 00:45:41;;;;;;;0.00;0.00;;;;;;;;;;1698341;29;20262;-73
2022/12/25 00:46:32;;;;;;;0.00;0.00;;;;;;;;;;1697836;29;20211;-73
2022/12/25 00:47:24;;;;;;;0.00;0.00;;;;;;;;;;1698056;29;20561;-73
2022/12/25 00:48:15;;;;;;;0.00;0.00;;;;;;;;;;1698218;29;20211;-73
2022/12/25 00:49:06;;;;;;;0.00;0.00;;;;;;;;;;1714283;28;20263;-73
2022/12/25 00:49:58;;;;;;;0.00;0.00;;;;;;;;;;1719804;28;20546;-73
2022/12/25 00:50:52;;;;;;;0.00;0.00;;;;;;;;;;1724946;28;20265;-73
2022/12/25 00:51:44;;;;;;;0.00;0.00;;;;;;;;;;1725706;28;20311;-73
2022/12/25 00:52:35;;;;;;;0.00;0.00;;;;;;;;;;1721404;28;20367;-73
2022/12/25 00:53:28;;;;;;;0.00;0.00;;;;;;;;;;1724318;28;20208;-73
2022/12/25 00:54:19;;;;;;;0.00;0.00;;;;;;;;;;1724254;28;20672;-73
2022/12/25 00:55:11;;;;;;;0.00;0.00;;;;;;;;;;1719936;28;20209;-73
2022/12/25 00:56:03;;;;;;;0.00;0.00;;;;;;;;;;1725475;28;20251;-73
2022/12/25 00:56:55;;;;;;;0.00;0.00;;;;;;;;;;1723905;28;20220;-74
2022/12/25 00:57:46;;;;;;;0.00;0.00;;;;;;;;;;1725287;28;20258;-73
2022/12/25 00:58:38;;;;;;;0.00;0.00;;;;;;;;;;1723543;28;20201;-73
2022/12/25 00:59:32;;;;;;;0.00;0.00;;;;;;;;;;1723597;28;20208;-73
2022/12/25 01:00:24;;;;;;;0.00;0.00;;;;;;;;;;1721499;28;20537;-73
2022/12/25 01:01:15;;;;;;;0.00;0.00;;;;;;;;;;1726108;28;20212;-74
2022/12/25 01:02:25;;;;;;;0.00;0.00;;;;;;;;;;1723904;28;20205;-74
2022/12/25 01:03:16;;;;;;;0.00;0.00;;;;;;;;;;1725702;28;20243;-73
2022/12/25 01:04:08;;;;;;;0.00;0.00;;;;;;;;;;1724630;28;20248;-74
2022/12/25 01:05:00;;;;;;;0.00;0.00;;;;;;;;;;1720261;28;20292;-74
2022/12/25 01:05:54;;;;;;;0.00;0.00;;;;;;;;;;1727150;28;20584;-74
2022/12/25 01:06:46;;;;;;;0.00;0.00;;;;;;;;;;1725196;28;20212;-74
2022/12/25 01:07:37;;;;;;;0.00;0.00;;;;;;;;;;1722139;28;20213;-74
2022/12/25 01:08:30;;;;;;;0.00;0.00;;;;;;;;;;1724530;28;20196;-74
2022/12/25 01:10:31;;;;;;;0.00;0.00;;;;;;;;;;1723109;28;20312;-74
2022/12/25 01:11:22;;;;;;;0.00;0.00;;;;;;;;;;1726540;28;20270;-73
2022/12/25 01:12:13;;;;;;;0.00;0.00;;;;;;;;;;1722644;28;20648;-73
2022/12/25 01:13:05;;;;;;;0.00;0.00;;;;;;;;;;1723971;28;20689;-73
2022/12/25 01:13:56;;;;;;;0.00;0.00;;;;;;;;;;1723378;28;20343;-73
2022/12/25 01:14:49;;;;;;;0.00;0.00;;;;;;;;;;1722175;28;20251;-73
2022/12/25 01:15:41;;;;;;;0.00;0.00;;;;;;;;;;1723916;28;20212;-73
2022/12/25 01:16:32;;;;;;;0.00;0.00;;;;;;;;;;1726694;28;20605;-73
2022/12/25 01:17:24;;;;;;;0.00;0.00;;;;;;;;;;1721335;28;20525;-73
2022/12/25 01:18:15;;;;;;;0.00;0.00;;;;;;;;;;1725878;28;20282;-73
2022/12/25 01:19:07;;;;;;;0.00;0.00;;;;;;;;;;1724084;28;20200;-73
2022/12/25 01:19:58;;;;;;;0.00;0.00;;;;;;;;;;1720336;28;20213;-73
2022/12/25 01:20:50;;;;;;;0.00;0.00;;;;;;;;;;1725503;28;20254;-73
2022/12/25 01:21:41;;;;;;;0.00;0.00;;;;;;;;;;1725573;28;20209;-73
2022/12/25 01:22:33;;;;;;;0.00;0.00;;;;;;;;;;1721866;28;20275;-73
2022/12/25 01:23:24;;;;;;;0.00;0.00;;;;;;;;;;1725088;28;20208;-73
2022/12/25 01:24:16;;;;;;;0.00;0.00;;;;;;;;;;1724932;28;20204;-73
2022/12/25 01:25:08;;;;;;;0.00;0.00;;;;;;;;;;1720286;28;20213;-73
2022/12/25 01:26:03;;;;;;;0.00;0.00;;;;;;;;;;1725629;28;20242;-73
2022/12/25 01:26:54;;;;;;;0.00;0.00;;;;;;;;;;1724364;28;20248;-74
2022/12/25 01:27:46;;;;;;;0.00;0.00;;;;;;;;;;1722683;28;20280;-74
2022/12/25 01:28:38;;;;;;;0.00;0.00;;;;;;;;;;1724017;28;20221;-74
2022/12/25 01:29:29;;;;;;;0.00;0.00;;;;;;;;;;1724119;28;20626;-74
2022/12/25 01:30:22;;;;;;;0.00;0.00;;;;;;;;;;1721407;28;20669;-74
2022/12/25 01:31:14;;;;;;;0.00;0.00;;;;;;;;;;1726540;28;20273;-73
2022/12/25 01:32:07;;;;;;;0.00;0.00;;;;;;;;;;1724830;28;20200;-73
2022/12/25 01:32:58;;;;;;;0.00;0.00;;;;;;;;;;1723641;28;20205;-73
2022/12/25 01:33:50;;;;;;;0.00;0.00;;;;;;;;;;1724040;28;20204;-73
2022/12/25 01:34:41;;;;;;;0.00;0.00;;;;;;;;;;1721616;28;20216;-73
2022/12/25 01:35:33;;;;;;;0.00;0.00;;;;;;;;;;1722528;28;20204;-73
2022/12/25 01:36:25;;;;;;;0.00;0.00;;;;;;;;;;1726185;28;20693;-73
2022/12/25 01:37:16;;;;;;;0.00;0.00;;;;;;;;;;1722317;28;20200;-73
2022/12/25 01:38:08;;;;;;;0.00;0.00;;;;;;;;;;1724443;28;20690;-73
2022/12/25 01:38:59;;;;;;;0.00;0.00;;;;;;;;;;1723830;28;20212;-73
2022/12/25 01:39:51;;;;;;;0.00;0.00;;;;;;;;;;1721488;28;20299;-73
2022/12/25 01:40:42;;;;;;;0.00;0.00;;;;;;;;;;1723754;28;20220;-73
2022/12/25 01:41:34;;;;;;;0.00;0.00;;;;;;;;;;1725821;28;20672;-73
2022/12/25 01:42:25;;;;;;;0.00;0.00;;;;;;;;;;1720981;28;20864;-74
2022/12/25 01:43:22;;;;;;;0.00;0.00;;;;;;;;;;1725260;28;20201;-74
2022/12/25 01:44:28;;;;;;;0.00;0.00;;;;;;;;;;1724644;28;20192;-74
2022/12/25 01:45:35;;;;;;;0.00;0.00;;;;;;;;;;1720913;28;20205;-74
2022/12/25 01:46:27;;;;;;;0.00;0.00;;;;;;;;;;1722943;28;20355;-73
2022/12/25 01:47:18;;;;;;;0.00;0.00;;;;;;;;;;1722859;28;20347;-73
2022/12/25 01:48:13;;;;;;;0.00;0.00;;;;;;;;;;1725129;28;20645;-73
2022/12/25 01:49:05;;;;;;;0.00;0.00;;;;;;;;;;1723954;28;20394;-73
2022/12/25 01:49:57;;;;;;;0.00;0.00;;;;;;;;;;1726222;28;20231;-73
2022/12/25 01:50:51;;;;;;;0.00;0.00;;;;;;;;;;1722676;28;20232;-73
2022/12/25 01:51:44;;;;;;;0.00;0.00;;;;;;;;;;1724726;28;20650;-73
2022/12/25 01:52:36;;;;;;;0.00;0.00;;;;;;;;;;1721558;28;20213;-73
2022/12/25 01:53:28;;;;;;;0.00;0.00;;;;;;;;;;1725422;28;20222;-73
2022/12/25 01:54:21;;;;;;;0.00;0.00;;;;;;;;;;1721865;28;20482;-73
2022/12/25 01:55:12;;;;;;;0.00;0.00;;;;;;;;;;1725830;28;21026;-73
2022/12/25 01:56:06;;;;;;;0.00;0.00;;;;;;;;;;1726066;28;20613;-73
2022/12/25 01:56:59;;;;;;;0.00;0.00;;;;;;;;;;1724039;28;20212;-73
2022/12/25 01:57:51;;;;;;;0.00;0.00;;;;;;;;;;1725196;28;20682;-73
2022/12/25 01:58:42;;;;;;;0.00;0.00;;;;;;;;;;1723795;28;20552;-73
2022/12/25 01:59:34;;;;;;;0.00;0.00;;;;;;;;;;1726284;28;20481;-73
2022/12/25 02:00:25;;;;;;;0.00;0.00;;;;;;;;;;1725793;28;20212;-73
2022/12/25 02:01:17;;;;;;;0.00;0.00;;;;;;;;;;1726180;28;20216;-74
2022/12/25 02:02:09;;;;;;;0.00;0.00;;;;;;;;;;1724556;28;20200;-74
2022/12/25 02:03:01;;;;;;;0.00;0.00;;;;;;;;;;1723200;28;20222;-74
2022/12/25 02:03:53;;;;;;;0.00;0.00;;;;;;;;;;1723977;28;20216;-74
2022/12/25 02:04:48;;;;;;;0.00;0.00;;;;;;;;;;1721872;28;20205;-74
2022/12/25 02:05:39;;;;;;;0.00;0.00;;;;;;;;;;1721361;28;20213;-74
2022/12/25 02:06:32;;;;;;;0.00;0.00;;;;;;;;;;1724947;28;20405;-74
2022/12/25 02:07:24;;;;;;;0.00;0.00;;;;;;;;;;1721028;28;20358;-74
2022/12/25 02:08:18;;;;;;;0.00;0.00;;;;;;;;;;1725248;28;20689;-73
2022/12/25 02:09:09;;;;;;;0.00;0.00;;;;;;;;;;1724105;28;20280;-74
2022/12/25 02:10:00;;;;;;;0.00;0.00;;;;;;;;;;1719738;28;20675;-74
2022/12/25 02:10:52;;;;;;;0.00;0.00;;;;;;;;;;1725286;28;20327;-74
2022/12/25 02:11:55;;;;;;;0.00;0.00;;;;;;;;;;1724221;28;20749;-74
2022/12/25 02:12:48;;;;;;;0.00;0.00;;;;;;;;;;1724360;28;20205;-74
2022/12/25 02:13:39;;;;;;;0.00;0.00;;;;;;;;;;1723360;28;20221;-74
2022/12/25 02:14:31;;;;;;;0.00;0.00;;;;;;;;;;1723731;28;20204;-74
2022/12/25 02:15:28;;;;;;;0.00;0.00;;;;;;;;;;1722008;28;20188;-74
2022/12/25 02:16:22;;;;;;;0.00;0.00;;;;;;;;;;1726138;28;20271;-73
2022/12/25 02:17:18;;;;;;;0.00;0.00;;;;;;;;;;1724074;28;20204;-73
2022/12/25 02:18:12;;;;;;;0.00;0.00;;;;;;;;;;1724452;28;20422;-73
2022/12/25 02:19:10;;;;;;;0.00;0.00;;;;;;;;;;1723399;28;20209;-73
2022/12/25 02:20:16;;;;;;;0.00;0.00;;;;;;;;;;1719471;28;20217;-73
2022/12/25 02:21:22;;;;;;;0.00;0.00;;;;;;;;;;1722500;28;20224;-73
2022/12/25 02:22:19;;;;;;;0.00;0.00;;;;;;;;;;1722229;28;20274;-73
2022/12/25 02:23:23;;;;;;;0.00;0.00;;;;;;;;;;1724602;28;20619;-73
2022/12/25 02:24:34;;;;;;;0.00;0.00;;;;;;;;;;1721979;28;20569;-73
2022/12/25 02:25:33;;;;;;;0.00;0.00;;;;;;;;;;1725375;28;20208;-73
2022/12/25 02:26:29;;;;;;;0.00;0.00;;;;;;;;;;1724172;28;20219;-74
2022/12/25 02:27:28;;;;;;;0.00;0.00;;;;;;;;;;1722300;28;21839;-74
2022/12/25 02:28:21;;;;;;;0.00;0.00;;;;;;;;;;1725583;28;20349;-74
2022/12/25 02:29:17;;;;;;;0.00;0.00;;;;;;;;;;1725211;28;20222;-74
2022/12/25 02:30:10;;;;;;;0.00;0.00;;;;;;;;;;1721136;28;20256;-74
2022/12/25 02:31:09;;;;;;;0.00;0.00;;;;;;;;;;1725613;28;20223;-74
2022/12/25 02:32:02;;;;;;;0.00;0.00;;;;;;;;;;1723461;28;20202;-73
2022/12/25 02:34:01;;;;;;;0.00;0.00;;;;;;;;;;1725845;28;20196;-73
2022/12/25 02:34:12;;;;;;;0.00;0.00;;;;;;;;;;1721890;28;20216;-73
2022/12/25 02:35:09;;;;;;;0.00;0.00;;;;;;;;;;1720042;28;20201;-73
2022/12/25 02:36:04;;;;;;;0.00;0.00;;;;;;;;;;1720037;28;20359;-73
2022/12/25 02:36:57;;;;;;;0.00;0.00;;;;;;;;;;1723554;28;20208;-73
2022/12/25 02:37:52;;;;;;;0.00;0.00;;;;;;;;;;1722488;28;20780;-73
2022/12/25 02:39:56;;;;;;;0.00;0.00;;;;;;;;;;1725345;28;20214;-73
2022/12/25 02:40:49;;;;;;;0.00;0.00;;;;;;;;;;1725181;28;20207;-73
2022/12/25 02:41:44;;;;;;;0.00;0.00;;;;;;;;;;1725139;28;20200;-73
2022/12/25 03:07:31;;;;;;;0.00;0.00;;;;;;;;;;1721409;28;20290;-73
2022/12/25 03:08:24;;;;;;;0.00;0.00;;;;;;;;;;1724586;28;20278;-73
2022/12/25 03:11:38;;;;;;;0.00;0.00;;;;;;;;;;1725609;28;20207;-73
2022/12/25 03:12:36;;;;;;;0.00;0.00;;;;;;;;;;1720709;28;20539;-73
2022/12/25 03:13:28;;;;;;;0.00;0.00;;;;;;;;;;1724115;28;20662;-73
2022/12/25 03:16:50;;;;;;;0.00;0.00;;;;;;;;;;1725055;28;20292;-73
2022/12/25 03:17:42;;;;;;;0.00;0.00;;;;;;;;;;1721550;28;20241;-73
2022/12/25 03:18:34;;;;;;;0.00;0.00;;;;;;;;;;1723273;28;20613;-73
2022/12/25 03:27:35;;;;;;;0.00;0.00;;;;;;;;;;1720595;28;20260;-74
2022/12/25 03:28:26;;;;;;;0.00;0.00;;;;;;;;;;1724461;28;20212;-74
2022/12/25 03:31:43;;;;;;;0.00;0.00;;;;;;;;;;1725274;28;20266;-74
2022/12/25 03:32:37;;;;;;;0.00;0.00;;;;;;;;;;1720153;28;20208;-74
2022/12/25 03:33:30;;;;;;;0.00;0.00;;;;;;;;;;1724112;28;20278;-74
2022/12/25 03:35:45;;;;;;;0.00;0.00;;;;;;;;;;1722463;28;20200;-74
2022/12/25 03:36:43;;;;;;;0.00;0.00;;;;;;;;;;1725678;28;20238;-74
2022/12/25 04:36:11;;;;;;;0.00;0.00;;;;;;;;;;1725237;28;20496;-73
2022/12/25 04:37:03;;;;;;;0.00;0.00;;;;;;;;;;1721476;28;20197;-73
2022/12/25 04:37:54;;;;;;;0.00;0.00;;;;;;;;;;1720486;28;20267;-73
2022/12/25 04:38:46;;;;;;;0.00;0.00;;;;;;;;;;1720632;28;20888;-73
2022/12/25 04:39:37;;;;;;;0.00;0.00;;;;;;;;;;1725955;28;20209;-73
2022/12/25 04:40:29;;;;;;;0.10;0.10;;;;;;;;;;1723690;28;20247;-73
2022/12/25 04:41:20;;;;;;;0.00;0.00;;;;;;;;;;1723550;28;20286;-74
2022/12/25 04:42:12;;;;;;;0.00;0.00;;;;;;;;;;1723705;28;20647;-74
2022/12/25 04:43:03;;;;;;;0.00;0.00;;;;;;;;;;1725689;28;20247;-74
2022/12/25 04:43:55;;;;;;;0.00;0.00;;;;;;;;;;1722927;28;20208;-74
2022/12/25 04:44:46;;;;;;;0.00;0.00;;;;;;;;;;1721308;28;20657;-74
2022/12/25 04:45:38;;;;;;;0.00;0.00;;;;;;;;;;1719969;28;20213;-74
2022/12/25 04:46:30;;;;;;;0.00;0.00;;;;;;;;;;1723133;28;20216;-74
2022/12/25 04:47:22;;;;;;;0.00;0.00;;;;;;;;;;1723020;28;20893;-74
2022/12/25 04:48:14;;;;;;;0.00;0.00;;;;;;;;;;1725745;28;20232;-74
2022/12/25 04:49:06;;;;;;;0.00;0.00;;;;;;;;;;1719071;28;20217;-74
2022/12/25 04:49:57;;;;;;;0.00;0.00;;;;;;;;;;1724871;28;20721;-75
2022/12/25 04:50:49;;;;;;;0.00;0.00;;;;;;;;;;1721015;28;20622;-75
2022/12/25 04:51:40;;;;;;;0.00;0.00;;;;;;;;;;1724918;28;20289;-74
2022/12/25 04:52:34;;;;;;;0.00;0.00;;;;;;;;;;1721871;28;20204;-75
2022/12/25 04:53:25;;;;;;;0.00;0.00;;;;;;;;;;1720060;28;20209;-75
2022/12/25 04:54:18;;;;;;;0.00;0.00;;;;;;;;;;1724216;28;20200;-74
2022/12/25 04:55:09;;;;;;;0.00;0.00;;;;;;;;;;1719484;28;20205;-75
2022/12/25 04:56:01;;;;;;;0.00;0.00;;;;;;;;;;1725381;28;20233;-75
2022/12/25 04:56:53;;;;;;;0.00;0.00;;;;;;;;;;1723413;28;20618;-75
2022/12/25 04:57:44;;;;;;;0.00;0.00;;;;;;;;;;1723144;28;20217;-74
2022/12/25 04:58:35;;;;;;;0.00;0.00;;;;;;;;;;1725448;28;20204;-74
2022/12/25 04:59:27;;;;;;;0.00;0.00;;;;;;;;;;1719537;28;20263;-74
2022/12/25 05:00:18;;;;;;;0.00;0.00;;;;;;;;;;1720100;28;20270;-74
2022/12/25 05:01:11;;;;;;;0.00;0.00;;;;;;;;;;1720909;28;20236;-74
2022/12/25 05:02:03;;;;;;;0.00;0.00;;;;;;;;;;1724608;28;20302;-73
2022/12/25 05:02:56;;;;;;;0.00;0.00;;;;;;;;;;1723077;28;20212;-73
2022/12/25 05:03:47;;;;;;;0.00;0.00;;;;;;;;;;1722988;28;20360;-73
2022/12/25 05:04:38;;;;;;;0.00;0.00;;;;;;;;;;1722553;28;20205;-73
2022/12/25 05:05:30;;;;;;;0.00;0.00;;;;;;;;;;1719601;28;20204;-73
2022/12/25 05:06:21;;;;;;;0.00;0.00;;;;;;;;;;1722659;28;20209;-73
2022/12/25 05:07:13;;;;;;;0.00;0.00;;;;;;;;;;1723260;28;20283;-73
2022/12/25 05:08:04;;;;;;;0.00;0.00;;;;;;;;;;1723751;28;20291;-75
2022/12/25 05:08:56;;;;;;;0.00;0.00;;;;;;;;;;1723307;28;20231;-73
2022/12/25 05:09:47;;;;;;;0.00;0.00;;;;;;;;;;1725673;28;20209;-73
2022/12/25 05:10:40;;;;;;;0.00;0.00;;;;;;;;;;1725220;28;20201;-73
2022/12/25 05:11:31;;;;;;;0.00;0.00;;;;;;;;;;1725765;28;20215;-74
2022/12/25 05:12:23;;;;;;;0.00;0.00;;;;;;;;;;1721090;28;20209;-74
2022/12/25 05:13:14;;;;;;;0.00;0.00;;;;;;;;;;1725558;28;20247;-74
2022/12/25 05:14:06;;;;;;;0.00;0.00;;;;;;;;;;1723040;28;20274;-74
2022/12/25 05:14:57;;;;;;;0.00;0.00;;;;;;;;;;1719836;28;20601;-74
2022/12/25 05:15:49;;;;;;;0.00;0.00;;;;;;;;;;1719703;28;20205;-74
2022/12/25 05:16:40;;;;;;;0.00;0.00;;;;;;;;;;1724748;28;20212;-74
2022/12/25 05:17:33;;;;;;;0.00;0.00;;;;;;;;;;1725050;28;20239;-74
2022/12/25 05:18:24;;;;;;;0.00;0.00;;;;;;;;;;1721358;28;20197;-74
2022/12/25 05:19:16;;;;;;;0.00;0.00;;;;;;;;;;1725282;28;20200;-74
2022/12/25 05:20:08;;;;;;;0.00;0.00;;;;;;;;;;1720526;28;20209;-74
2022/12/25 05:20:59;;;;;;;0.00;0.00;;;;;;;;;;1726645;28;20562;-73
2022/12/25 05:21:50;;;;;;;0.00;0.00;;;;;;;;;;1724692;28;20248;-73
2022/12/25 05:22:42;;;;;;;0.00;0.00;;;;;;;;;;1724283;28;20253;-73
2022/12/25 05:23:33;;;;;;;0.00;0.00;;;;;;;;;;1724818;28;20319;-73
2022/12/25 05:24:25;;;;;;;0.00;0.00;;;;;;;;;;1724738;28;20248;-73
2022/12/25 05:25:16;;;;;;;0.00;0.00;;;;;;;;;;1720897;28;20209;-73
2022/12/25 05:26:08;;;;;;;0.00;0.00;;;;;;;;;;1726870;28;20347;-73
2022/12/25 05:26:59;;;;;;;0.00;0.00;;;;;;;;;;1722080;28;20216;-73
2022/12/25 05:27:51;;;;;;;0.00;0.00;;;;;;;;;;1723697;28;20275;-73
2022/12/25 05:28:42;;;;;;;0.00;0.00;;;;;;;;;;1724085;28;20221;-73
2022/12/25 05:29:33;;;;;;;0.00;0.00;;;;;;;;;;1724325;28;20248;-73
2022/12/25 05:30:25;;;;;;;0.00;0.00;;;;;;;;;;1721733;28;20205;-73
2022/12/25 05:31:16;;;;;;;0.00;0.00;;;;;;;;;;1726895;28;20652;-74
2022/12/25 05:32:09;;;;;;;0.00;0.00;;;;;;;;;;1724935;28;20246;-74
2022/12/25 05:33:02;;;;;;;0.00;0.00;;;;;;;;;;1724613;28;20286;-74
2022/12/25 05:33:54;;;;;;;0.00;0.00;;;;;;;;;;1723936;28;20219;-74
2022/12/25 05:34:45;;;;;;;0.00;0.00;;;;;;;;;;1720630;28;20212;-74
2022/12/25 05:35:37;;;;;;;0.00;0.00;;;;;;;;;;1721327;28;20200;-74
2022/12/25 05:36:28;;;;;;;0.00;0.00;;;;;;;;;;1724534;28;20679;-73
2022/12/25 05:37:20;;;;;;;0.00;0.00;;;;;;;;;;1724069;28;20580;-73
2022/12/25 05:38:11;;;;;;;0.00;0.00;;;;;;;;;;1726916;28;20208;-73
2022/12/25 05:39:03;;;;;;;0.00;0.00;;;;;;;;;;1724286;28;20262;-73
2022/12/25 05:39:54;;;;;;;0.00;0.00;;;;;;;;;;1721483;28;20590;-73
2022/12/25 05:40:46;;;;;;;0.00;0.00;;;;;;;;;;1720441;28;20205;-73
2022/12/25 05:41:37;;;;;;;0.00;0.00;;;;;;;;;;1725796;28;20216;-73
2022/12/25 05:42:29;;;;;;;0.00;0.00;;;;;;;;;;1723938;28;20201;-73
2022/12/25 05:43:20;;;;;;;0.00;0.00;;;;;;;;;;1725844;28;20205;-73
2022/12/25 05:44:12;;;;;;;0.00;0.00;;;;;;;;;;1724692;28;20208;-73
2022/12/25 05:45:06;;;;;;;0.00;0.00;;;;;;;;;;1727001;28;20270;-73
2022/12/25 05:45:58;;;;;;;0.00;0.00;;;;;;;;;;1721110;28;20209;-73
2022/12/25 05:46:49;;;;;;;0.00;0.00;;;;;;;;;;1726690;28;20265;-73
2022/12/25 05:47:41;;;;;;;0.00;0.00;;;;;;;;;;1722498;28;20197;-73
2022/12/25 05:48:34;;;;;;;0.00;0.00;;;;;;;;;;1724611;28;20224;-73
2022/12/25 05:49:26;;;;;;;0.00;0.00;;;;;;;;;;1725087;28;20507;-73
2022/12/25 05:50:17;;;;;;;0.00;0.00;;;;;;;;;;1722188;28;20322;-73
2022/12/25 05:51:10;;;;;;;0.00;0.00;;;;;;;;;;1726839;28;20318;-73
2022/12/25 05:52:01;;;;;;;0.00;0.00;;;;;;;;;;1722264;28;20761;-73
2022/12/25 05:52:53;;;;;;;0.00;0.00;;;;;;;;;;1723627;28;20586;-73
2022/12/25 05:53:44;;;;;;;0.00;0.00;;;;;;;;;;1724162;28;20213;-73
2022/12/25 05:54:36;;;;;;;0.00;0.00;;;;;;;;;;1720681;28;20212;-73
2022/12/25 05:55:27;;;;;;;0.00;0.00;;;;;;;;;;1721599;28;20205;-73
2022/12/25 05:56:19;;;;;;;0.00;0.00;;;;;;;;;;1726749;28;20200;-73
2022/12/25 05:57:10;;;;;;;0.00;0.00;;;;;;;;;;1723761;28;20213;-73
2022/12/25 05:58:02;;;;;;;0.00;0.00;;;;;;;;;;1724440;28;20200;-73
2022/12/25 05:58:54;;;;;;;0.00;0.00;;;;;;;;;;1724010;28;20777;-73
2022/12/25 05:59:45;;;;;;;0.00;0.00;;;;;;;;;;1722537;28;20197;-73
2022/12/25 06:00:37;;;;;;;0.00;0.00;;;;;;;;;;1722962;28;20694;-73
2022/12/25 06:01:29;;;;;;;0.00;0.00;;;;;;;;;;1726661;28;20693;-74
2022/12/25 06:02:20;;;;;;;0.00;0.00;;;;;;;;;;1723463;28;20273;-74
2022/12/25 06:03:12;;;;;;;0.00;0.00;;;;;;;;;;1725041;28;20258;-74
2022/12/25 06:04:05;;;;;;;0.00;0.00;;;;;;;;;;1724042;28;20269;-74
2022/12/25 06:04:57;;;;;;;0.00;0.00;;;;;;;;;;1721010;28;20594;-74
2022/12/25 06:05:48;;;;;;;0.00;0.00;;;;;;;;;;1721859;28;20219;-74
2022/12/25 06:06:40;;;;;;;0.00;0.00;;;;;;;;;;1725576;28;20227;-74
2022/12/25 06:07:31;;;;;;;0.00;0.00;;;;;;;;;;1722771;28;20259;-74
2022/12/25 06:08:23;;;;;;;0.00;0.00;;;;;;;;;;1725383;28;20238;-74
2022/12/25 06:09:14;;;;;;;0.00;0.00;;;;;;;;;;1725126;28;20216;-74
2022/12/25 06:10:06;;;;;;;0.00;0.00;;;;;;;;;;1726068;28;20279;-74
2022/12/25 06:10:57;;;;;;;0.00;0.00;;;;;;;;;;1725496;28;20626;-74
2022/12/25 06:11:49;;;;;;;0.00;0.00;;;;;;;;;;1725039;28;20573;-74
2022/12/25 06:12:40;;;;;;;0.00;0.00;;;;;;;;;;1723217;28;20275;-74
2022/12/25 06:13:33;;;;;;;0.00;0.00;;;;;;;;;;1724345;28;20216;-74
2022/12/25 06:14:24;;;;;;;0.00;0.00;;;;;;;;;;1724636;28;20303;-74
2022/12/25 06:15:16;;;;;;;0.00;0.00;;;;;;;;;;1720520;28;20462;-74
2022/12/25 06:16:08;;;;;;;0.00;0.00;;;;;;;;;;1726327;28;20266;-74
2022/12/25 06:17:00;;;;;;;0.00;0.00;;;;;;;;;;1723931;28;20223;-74
2022/12/25 06:17:51;;;;;;;0.00;0.00;;;;;;;;;;1724227;28;20975;-74
2022/12/25 06:18:45;;;;;;;0.00;0.00;;;;;;;;;;1723639;28;20209;-74
2022/12/25 06:19:37;;;;;;;0.00;0.00;;;;;;;;;;1723688;28;20205;-74
2022/12/25 06:20:29;;;;;;;0.00;0.00;;;;;;;;;;1720095;28;20264;-74
2022/12/25 06:21:20;;;;;;;0.00;0.00;;;;;;;;;;1723478;28;20212;-74
2022/12/25 06:22:12;;;;;;;0.00;0.00;;;;;;;;;;1723965;28;20209;-74
2022/12/25 06:23:03;;;;;;;0.00;0.00;;;;;;;;;;1724572;28;20294;-74
2022/12/25 06:23:55;;;;;;;0.00;0.00;;;;;;;;;;1723412;28;20208;-74
2022/12/25 06:24:46;;;;;;;0.00;0.00;;;;;;;;;;1719941;28;20205;-74
2022/12/25 06:25:39;;;;;;;0.00;0.00;;;;;;;;;;1720127;28;20586;-74
2022/12/25 06:26:30;;;;;;;0.00;0.00;;;;;;;;;;1724466;28;20208;-74
2022/12/25 06:27:22;;;;;;;0.00;0.00;;;;;;;;;;1723407;28;20208;-74
2022/12/25 06:28:13;;;;;;;0.00;0.00;;;;;;;;;;1725031;28;20727;-74
2022/12/25 06:29:05;;;;;;;0.00;0.00;;;;;;;;;;1722424;28;20280;-73
2022/12/25 06:29:56;;;;;;;0.00;0.00;;;;;;;;;;1720307;28;20618;-74
2022/12/25 06:30:48;;;;;;;0.00;0.00;;;;;;;;;;1719941;28;20635;-74
2022/12/25 06:31:39;;;;;;;0.00;0.00;;;;;;;;;;1725716;28;20208;-73
2022/12/25 06:32:31;;;;;;;0.00;0.00;;;;;;;;;;1722213;28;20575;-73
2022/12/25 06:33:22;;;;;;;0.00;0.00;;;;;;;;;;1725193;28;20650;-73
2022/12/25 06:34:15;;;;;;;0.00;0.00;;;;;;;;;;1720232;28;20520;-73
2022/12/25 06:35:07;;;;;;;0.00;0.00;;;;;;;;;;1725751;28;20216;-73
2022/12/25 06:35:59;;;;;;;0.00;0.00;;;;;;;;;;1719929;28;20241;-74
2022/12/25 06:36:50;;;;;;;0.00;0.00;;;;;;;;;;1724848;28;20531;-74
2022/12/25 06:37:42;;;;;;;0.00;0.00;;;;;;;;;;1723417;28;20224;-74
2022/12/25 06:38:34;;;;;;;0.00;0.00;;;;;;;;;;1724301;28;20518;-74
2022/12/25 06:39:26;;;;;;;0.00;0.00;;;;;;;;;;1726139;28;20282;-74
2022/12/25 06:40:17;;;;;;;0.00;0.00;;;;;;;;;;1724481;28;20205;-74
2022/12/25 06:41:10;;;;;;;0.00;0.00;;;;;;;;;;1721462;28;20299;-73
2022/12/25 06:42:01;;;;;;;0.00;0.00;;;;;;;;;;1723861;28;20274;-73
2022/12/25 06:42:53;;;;;;;0.00;0.00;;;;;;;;;;1724323;28;20231;-73
2022/12/25 06:43:46;;;;;;;0.00;0.00;;;;;;;;;;1723382;28;20270;-73
2022/12/25 06:44:39;;;;;;;0.00;0.00;;;;;;;;;;1723317;28;20781;-73
2022/12/25 06:45:30;;;;;;;0.00;0.00;;;;;;;;;;1722043;28;20201;-73
2022/12/25 06:46:22;;;;;;;0.00;0.00;;;;;;;;;;1726524;28;20228;-74
2022/12/25 06:47:13;;;;;;;0.00;0.00;;;;;;;;;;1723607;28;20594;-74
2022/12/25 06:48:06;;;;;;;0.00;0.00;;;;;;;;;;1724570;28;20208;-74
2022/12/25 06:48:57;;;;;;;0.00;0.00;;;;;;;;;;1723755;28;20232;-74
2022/12/25 06:49:49;;;;;;;0.00;0.00;;;;;;;;;;1721818;28;20201;-74
2022/12/25 06:50:43;;;;;;;0.00;0.00;;;;;;;;;;1721747;28;20275;-74
2022/12/25 06:51:35;;;;;;;0.00;0.00;;;;;;;;;;1724935;28;20219;-74
2022/12/25 06:52:26;;;;;;;0.00;0.00;;;;;;;;;;1722632;28;20212;-74
2022/12/25 06:53:18;;;;;;;0.00;0.00;;;;;;;;;;1725516;28;20295;-74
2022/12/25 06:54:09;;;;;;;0.00;0.00;;;;;;;;;;1719548;28;20617;-74
2022/12/25 06:55:03;;;;;;;0.00;0.00;;;;;;;;;;1719588;28;20212;-74
2022/12/25 06:56:01;;;;;;;0.00;0.00;;;;;;;;;;1719393;28;20586;-74
2022/12/25 06:56:53;;;;;;;0.00;0.00;;;;;;;;;;1724256;28;20215;-73
2022/12/25 06:57:44;;;;;;;0.00;0.00;;;;;;;;;;1723745;28;20213;-73
2022/12/25 06:58:35;;;;;;;0.00;0.00;;;;;;;;;;1724043;28;20200;-73